sensor_id;sensor_type;location;lat;lon;timestamp;pressure;altitude;pressure_sealevel;temperature;humidity
51452;BME280;37521;52.020;-1.740;2023-04-16T00:00:14;100824.44;;;3.68;100.00
51452;BME280;37521;52.020;-1.740;2023-04-16T00:02:42;100825.31;;;3.65;100.00
51452;BME280;37521;52.020;-1.740;2023-04-16T00:05:10;100821.84;;;3.63;100.00
51452;BME280;37521;52.020;-1.740;2023-04-16T00:07:40;100831.44;;;3.63;100.00
51452;BME280;37521;52.020;-1.740;2023-04-16T00:10:08;100825.34;;;3.62;100.00
51452;BME280;37521;52.020;-1.740;2023-04-16T00:12:36;100814.91;;;3.62;100.00
51452;BME280;37521;52.020;-1.740;2023-04-16T00:15:05;100822.72;;;3.64;100.00
51452;BME280;37521;52.020;-1.740;2023-04-16T00:17:33;100827.94;;;3.65;100.00
51452;BME280;37521;52.020;-1.740;2023-04-16T00:20:01;100826.19;;;3.66;100.00
51452;BME280;37521;52.020;-1.740;2023-04-16T00:22:29;100823.56;;;3.70;100.00
51452;BME280;37521;52.020;-1.740;2023-04-16T00:24:59;100819.19;;;3.72;100.00
51452;BME280;37521;52.020;-1.740;2023-04-16T00:27:27;100821.81;;;3.72;100.00
51452;BME280;37521;52.020;-1.740;2023-04-16T00:29:55;100828.78;;;3.70;100.00
51452;BME280;37521;52.020;-1.740;2023-04-16T00:32:23;100824.44;;;3.69;100.00
51452;BME280;37521;52.020;-1.740;2023-04-16T00:34:51;100820.09;;;3.68;100.00
51452;BME280;37521;52.020;-1.740;2023-04-16T00:37:20;100818.34;;;3.67;100.00
51452;BME280;37521;52.020;-1.740;2023-04-16T00:39:49;100819.22;;;3.66;100.00
51452;BME280;37521;52.020;-1.740;2023-04-16T00:42:18;100826.16;;;3.67;100.00
51452;BME280;37521;52.020;-1.740;2023-04-16T00:44:46;100818.34;;;3.66;100.00
51452;BME280;37521;52.020;-1.740;2023-04-16T00:47:15;100811.38;;;3.69;100.00
51452;BME280;37521;52.020;-1.740;2023-04-16T00:49:43;100812.22;;;3.73;100.00
51452;BME280;37521;52.020;-1.740;2023-04-16T00:52:11;100813.09;;;3.72;100.00
51452;BME280;37521;52.020;-1.740;2023-04-16T00:54:39;100821.81;;;3.75;100.00
51452;BME280;37521;52.020;-1.740;2023-04-16T00:57:09;100813.06;;;3.79;100.00
51452;BME280;37521;52.020;-1.740;2023-04-16T00:59:38;100821.78;;;3.81;100.00
51452;BME280;37521;52.020;-1.740;2023-04-16T01:02:07;100815.66;;;3.82;100.00
51452;BME280;37521;52.020;-1.740;2023-04-16T01:04:35;100820.84;;;3.86;100.00
51452;BME280;37521;52.020;-1.740;2023-04-16T01:07:03;100817.34;;;3.87;100.00
51452;BME280;37521;52.020;-1.740;2023-04-16T01:09:31;100813.88;;;3.88;100.00
51452;BME280;37521;52.020;-1.740;2023-04-16T01:12:02;100817.34;;;3.87;100.00
51452;BME280;37521;52.020;-1.740;2023-04-16T01:14:30;100823.47;;;3.89;100.00
51452;BME280;37521;52.020;-1.740;2023-04-16T01:17:03;100817.34;;;3.90;100.00
51452;BME280;37521;52.020;-1.740;2023-04-16T01:19:31;100819.94;;;3.93;100.00
51452;BME280;37521;52.020;-1.740;2023-04-16T01:22:03;100826.88;;;3.94;100.00
51452;BME280;37521;52.020;-1.740;2023-04-16T01:24:33;100822.56;;;3.96;100.00
51452;BME280;37521;52.020;-1.740;2023-04-16T01:27:02;100823.41;;;3.98;100.00
51452;BME280;37521;52.020;-1.740;2023-04-16T01:29:30;100821.63;;;4.00;100.00
51452;BME280;37521;52.020;-1.740;2023-04-16T01:31:59;100826.84;;;4.03;100.00
51452;BME280;37521;52.020;-1.740;2023-04-16T01:34:32;100827.72;;;4.03;100.00
51452;BME280;37521;52.020;-1.740;2023-04-16T01:37:03;100830.31;;;4.05;100.00
51452;BME280;37521;52.020;-1.740;2023-04-16T01:39:32;100832.94;;;4.05;100.00
51452;BME280;37521;52.020;-1.740;2023-04-16T01:42:00;100825.09;;;4.05;100.00
51452;BME280;37521;52.020;-1.740;2023-04-16T01:44:29;100827.69;;;4.05;100.00
51452;BME280;37521;52.020;-1.740;2023-04-16T01:46:57;100833.78;;;4.07;100.00
51452;BME280;37521;52.020;-1.740;2023-04-16T01:49:26;100824.22;;;4.09;100.00
51452;BME280;37521;52.020;-1.740;2023-04-16T01:51:54;100830.31;;;4.08;100.00
51452;BME280;37521;52.020;-1.740;2023-04-16T01:54:24;100835.53;;;4.08;100.00
51452;BME280;37521;52.020;-1.740;2023-04-16T01:56:52;100835.53;;;4.05;100.00
51452;BME280;37521;52.020;-1.740;2023-04-16T01:59:20;100829.47;;;4.03;100.00
51452;BME280;37521;52.020;-1.740;2023-04-16T02:01:49;100825.13;;;4.02;100.00
51452;BME280;37521;52.020;-1.740;2023-04-16T02:04:17;100820.78;;;3.99;100.00
51452;BME280;37521;52.020;-1.740;2023-04-16T02:06:45;100828.63;;;3.98;100.00
51452;BME280;37521;52.020;-1.740;2023-04-16T02:09:13;100819.94;;;3.96;100.00
51452;BME280;37521;52.020;-1.740;2023-04-16T02:11:43;100815.56;;;3.96;100.00
51452;BME280;37521;52.020;-1.740;2023-04-16T02:14:11;100821.66;;;3.97;100.00
51452;BME280;37521;52.020;-1.740;2023-04-16T02:16:39;100812.97;;;3.96;100.00
51452;BME280;37521;52.020;-1.740;2023-04-16T02:19:16;100812.09;;;3.97;100.00
51452;BME280;37521;52.020;-1.740;2023-04-16T02:21:44;100817.31;;;3.97;100.00
51452;BME280;37521;52.020;-1.740;2023-04-16T02:24:12;100816.41;;;4.00;100.00
51452;BME280;37521;52.020;-1.740;2023-04-16T02:26:43;100821.66;;;3.97;100.00
51452;BME280;37521;52.020;-1.740;2023-04-16T02:29:15;100819.06;;;3.94;100.00
51452;BME280;37521;52.020;-1.740;2023-04-16T02:31:51;100820.81;;;3.95;100.00
51452;BME280;37521;52.020;-1.740;2023-04-16T02:34:19;100812.97;;;3.93;100.00
51452;BME280;37521;52.020;-1.740;2023-04-16T02:36:48;100816.47;;;3.91;100.00
51452;BME280;37521;52.020;-1.740;2023-04-16T02:39:16;100813.88;;;3.88;100.00
51452;BME280;37521;52.020;-1.740;2023-04-16T02:41:45;100806.94;;;3.83;100.00
51452;BME280;37521;52.020;-1.740;2023-04-16T02:44:13;100813.06;;;3.79;100.00
51452;BME280;37521;52.020;-1.740;2023-04-16T02:46:42;100811.31;;;3.78;100.00
51452;BME280;37521;52.020;-1.740;2023-04-16T02:49:10;100806.97;;;3.79;100.00
51452;BME280;37521;52.020;-1.740;2023-04-16T02:51:38;100809.59;;;3.77;100.00
51452;BME280;37521;52.020;-1.740;2023-04-16T02:54:06;100803.47;;;3.78;100.00
51452;BME280;37521;52.020;-1.740;2023-04-16T02:56:34;100810.47;;;3.78;100.00
51452;BME280;37521;52.020;-1.740;2023-04-16T02:59:04;100811.31;;;3.78;100.00
51452;BME280;37521;52.020;-1.740;2023-04-16T03:01:32;100808.69;;;3.80;100.00
51452;BME280;37521;52.020;-1.740;2023-04-16T03:04:00;100811.31;;;3.81;100.00
51452;BME280;37521;52.020;-1.740;2023-04-16T03:06:29;100806.06;;;3.83;100.00
51452;BME280;37521;52.020;-1.740;2023-04-16T03:08:57;100797.34;;;3.86;100.00
51452;BME280;37521;52.020;-1.740;2023-04-16T03:11:25;100795.56;;;3.88;100.00
51452;BME280;37521;52.020;-1.740;2023-04-16T03:13:53;100793.84;;;3.90;100.00
51452;BME280;37521;52.020;-1.740;2023-04-16T03:16:23;100800.81;;;3.88;100.00
51452;BME280;37521;52.020;-1.740;2023-04-16T03:18:51;100792.97;;;3.91;100.00
51452;BME280;37521;52.020;-1.740;2023-04-16T03:21:20;100797.31;;;3.95;100.00
51452;BME280;37521;52.020;-1.740;2023-04-16T03:23:48;100797.28;;;3.98;100.00
51452;BME280;37521;52.020;-1.740;2023-04-16T03:26:16;100793.75;;;4.00;100.00
51452;BME280;37521;52.020;-1.740;2023-04-16T03:28:44;100799.00;;;4.02;100.00
51452;BME280;37521;52.020;-1.740;2023-04-16T03:31:12;100793.72;;;4.05;100.00
51452;BME280;37521;52.020;-1.740;2023-04-16T03:33:42;100799.81;;;4.05;100.00
51452;BME280;37521;52.020;-1.740;2023-04-16T03:36:10;100795.50;;;4.03;100.00
51452;BME280;37521;52.020;-1.740;2023-04-16T03:38:38;100792.88;;;4.03;100.00
51452;BME280;37521;52.020;-1.740;2023-04-16T03:41:06;100796.38;;;4.02;100.00
51452;BME280;37521;52.020;-1.740;2023-04-16T03:43:35;100796.38;;;4.02;100.00
51452;BME280;37521;52.020;-1.740;2023-04-16T03:46:04;100805.94;;;4.03;100.00
51452;BME280;37521;52.020;-1.740;2023-04-16T03:48:32;100790.28;;;4.03;100.00
51452;BME280;37521;52.020;-1.740;2023-04-16T03:51:02;100802.47;;;4.04;100.00
51452;BME280;37521;52.020;-1.740;2023-04-16T03:53:32;100791.97;;;4.07;100.00
51452;BME280;37521;52.020;-1.740;2023-04-16T03:56:00;100791.97;;;4.05;100.00
51452;BME280;37521;52.020;-1.740;2023-04-16T03:58:28;100781.56;;;4.04;100.00
51452;BME280;37521;52.020;-1.740;2023-04-16T04:00:57;100779.81;;;4.03;100.00
51452;BME280;37521;52.020;-1.740;2023-04-16T04:03:25;100779.81;;;4.03;100.00
51452;BME280;37521;52.020;-1.740;2023-04-16T04:05:54;100778.06;;;4.05;100.00
51452;BME280;37521;52.020;-1.740;2023-04-16T04:08:28;100776.28;;;4.07;100.00
51452;BME280;37521;52.020;-1.740;2023-04-16T04:10:56;100778.06;;;4.08;100.00
51452;BME280;37521;52.020;-1.740;2023-04-16T04:13:24;100774.56;;;4.09;100.00
51452;BME280;37521;52.020;-1.740;2023-04-16T04:15:53;100773.66;;;4.12;100.00
51452;BME280;37521;52.020;-1.740;2023-04-16T04:18:22;100776.25;;;4.16;100.00
51452;BME280;37521;52.020;-1.740;2023-04-16T04:20:50;100777.09;;;4.17;100.00
51452;BME280;37521;52.020;-1.740;2023-04-16T04:23:22;100776.25;;;4.16;100.00
51452;BME280;37521;52.020;-1.740;2023-04-16T04:25:52;100769.28;;;4.15;100.00
51452;BME280;37521;52.020;-1.740;2023-04-16T04:28:21;100767.53;;;4.16;100.00
51452;BME280;37521;52.020;-1.740;2023-04-16T04:30:49;100760.56;;;4.15;100.00
51452;BME280;37521;52.020;-1.740;2023-04-16T04:33:18;100772.75;;;4.14;100.00
51452;BME280;37521;52.020;-1.740;2023-04-16T04:35:46;100767.50;;;4.17;100.00
51452;BME280;37521;52.020;-1.740;2023-04-16T04:38:16;100768.34;;;4.19;100.00
51452;BME280;37521;52.020;-1.740;2023-04-16T04:40:46;100769.25;;;4.18;100.00
51452;BME280;37521;52.020;-1.740;2023-04-16T04:43:17;100762.28;;;4.17;100.00
51452;BME280;37521;52.020;-1.740;2023-04-16T04:45:46;100771.88;;;4.17;100.00
51452;BME280;37521;52.020;-1.740;2023-04-16T04:48:16;100769.28;;;4.15;100.00
51452;BME280;37521;52.020;-1.740;2023-04-16T04:50:45;100777.09;;;4.17;100.00
51452;BME280;37521;52.020;-1.740;2023-04-16T04:53:13;100769.28;;;4.15;100.00
51452;BME280;37521;52.020;-1.740;2023-04-16T04:55:42;100772.75;;;4.17;100.00
51452;BME280;37521;52.020;-1.740;2023-04-16T04:58:10;100777.13;;;4.15;100.00
51452;BME280;37521;52.020;-1.740;2023-04-16T05:00:41;100777.13;;;4.15;100.00
51452;BME280;37521;52.020;-1.740;2023-04-16T05:03:10;100779.72;;;4.15;100.00
51452;BME280;37521;52.020;-1.740;2023-04-16T05:05:39;100780.59;;;4.14;100.00
51452;BME280;37521;52.020;-1.740;2023-04-16T05:08:07;100786.69;;;4.13;100.00
51452;BME280;37521;52.020;-1.740;2023-04-16T05:10:35;100783.19;;;4.14;100.00
51452;BME280;37521;52.020;-1.740;2023-04-16T05:13:04;100785.81;;;4.16;100.00
51452;BME280;37521;52.020;-1.740;2023-04-16T05:15:32;100774.50;;;4.17;100.00
51452;BME280;37521;52.020;-1.740;2023-04-16T05:18:01;100778.84;;;4.18;100.00
51452;BME280;37521;52.020;-1.740;2023-04-16T05:20:29;100785.81;;;4.17;100.00
51452;BME280;37521;52.020;-1.740;2023-04-16T05:22:57;100781.41;;;4.21;100.00
51452;BME280;37521;52.020;-1.740;2023-04-16T05:25:26;100782.25;;;4.24;100.00
51452;BME280;37521;52.020;-1.740;2023-04-16T05:27:54;100770.91;;;4.25;100.00
51452;BME280;37521;52.020;-1.740;2023-04-16T05:30:22;100772.63;;;4.28;100.00
51452;BME280;37521;52.020;-1.740;2023-04-16T05:32:50;100779.59;;;4.30;100.00
51452;BME280;37521;52.020;-1.740;2023-04-16T05:35:20;100777.84;;;4.32;100.00
51452;BME280;37521;52.020;-1.740;2023-04-16T05:37:48;100783.06;;;4.32;100.00
51452;BME280;37521;52.020;-1.740;2023-04-16T05:40:16;100780.44;;;4.35;100.00
51452;BME280;37521;52.020;-1.740;2023-04-16T05:42:45;100777.81;;;4.35;100.00
51452;BME280;37521;52.020;-1.740;2023-04-16T05:45:13;100778.66;;;4.37;100.00
51452;BME280;37521;52.020;-1.740;2023-04-16T05:47:41;100789.09;;;4.39;100.00
51452;BME280;37521;52.020;-1.740;2023-04-16T05:50:10;100786.47;;;4.41;100.00
51452;BME280;37521;52.020;-1.740;2023-04-16T05:52:39;100779.50;;;4.43;100.00
51452;BME280;37521;52.020;-1.740;2023-04-16T05:55:08;100786.47;;;4.44;100.00
51452;BME280;37521;52.020;-1.740;2023-04-16T05:57:36;100784.72;;;4.43;100.00
51452;BME280;37521;52.020;-1.740;2023-04-16T06:00:05;100787.31;;;4.44;100.00
51452;BME280;37521;52.020;-1.740;2023-04-16T06:02:40;100789.91;;;4.46;100.00
51452;BME280;37521;52.020;-1.740;2023-04-16T06:05:08;100795.13;;;4.49;100.00
51452;BME280;37521;52.020;-1.740;2023-04-16T06:07:36;100795.97;;;4.51;100.00
51452;BME280;37521;52.020;-1.740;2023-04-16T06:10:06;100797.69;;;4.56;100.00
51452;BME280;37521;52.020;-1.740;2023-04-16T06:12:35;100796.78;;;4.59;100.00
51452;BME280;37521;52.020;-1.740;2023-04-16T06:15:03;100799.34;;;4.63;100.00
51452;BME280;37521;52.020;-1.740;2023-04-16T06:17:32;100801.06;;;4.66;100.00
51452;BME280;37521;52.020;-1.740;2023-04-16T06:20:00;100799.28;;;4.71;100.00
51452;BME280;37521;52.020;-1.740;2023-04-16T06:22:28;100805.34;;;4.76;100.00
51452;BME280;37521;52.020;-1.740;2023-04-16T06:24:56;100808.75;;;4.84;100.00
51452;BME280;37521;52.020;-1.740;2023-04-16T06:27:26;100809.56;;;4.89;100.00
51452;BME280;37521;52.020;-1.740;2023-04-16T06:29:55;100813.88;;;4.93;100.00
51452;BME280;37521;52.020;-1.740;2023-04-16T06:32:24;100805.97;;;4.98;100.00
51452;BME280;37521;52.020;-1.740;2023-04-16T06:34:52;100817.22;;;5.06;100.00
51452;BME280;37521;52.020;-1.740;2023-04-16T06:37:20;100814.56;;;5.11;100.00
51452;BME280;37521;52.020;-1.740;2023-04-16T06:39:48;100813.63;;;5.18;100.00
51452;BME280;37521;52.020;-1.740;2023-04-16T06:42:16;100813.53;;;5.26;100.00
51452;BME280;37521;52.020;-1.740;2023-04-16T06:44:46;100820.38;;;5.34;100.00
51452;BME280;37521;52.020;-1.740;2023-04-16T06:47:15;100822.94;;;5.40;100.00
51452;BME280;37521;52.020;-1.740;2023-04-16T06:49:43;100828.16;;;5.43;100.00
51452;BME280;37521;52.020;-1.740;2023-04-16T06:52:11;100823.72;;;5.49;100.00
51452;BME280;37521;52.020;-1.740;2023-04-16T06:54:39;100827.19;;;5.51;100.00
51452;BME280;37521;52.020;-1.740;2023-04-16T06:57:07;100834.13;;;5.53;100.00
51452;BME280;37521;52.020;-1.740;2023-04-16T06:59:35;100836.72;;;5.56;100.00
51452;BME280;37521;52.020;-1.740;2023-04-16T07:02:05;100836.69;;;5.59;100.00
51452;BME280;37521;52.020;-1.740;2023-04-16T07:04:34;100840.13;;;5.61;100.00
51452;BME280;37521;52.020;-1.740;2023-04-16T07:07:03;100835.78;;;5.62;100.00
51452;BME280;37521;52.020;-1.740;2023-04-16T07:09:31;100839.25;;;5.64;100.00
51452;BME280;37521;52.020;-1.740;2023-04-16T07:11:59;100840.94;;;5.68;100.00
51452;BME280;37521;52.020;-1.740;2023-04-16T07:14:27;100840.00;;;5.72;100.00
51452;BME280;37521;52.020;-1.740;2023-04-16T07:16:55;100834.72;;;5.77;100.00
51452;BME280;37521;52.020;-1.740;2023-04-16T07:19:25;100839.00;;;5.82;100.00
51452;BME280;37521;52.020;-1.740;2023-04-16T07:21:56;100841.53;;;5.90;100.00
51452;BME280;37521;52.020;-1.740;2023-04-16T07:24:24;100849.34;;;5.94;100.00
51452;BME280;37521;52.020;-1.740;2023-04-16T07:26:52;100844.06;;;5.97;100.00
51452;BME280;37521;52.020;-1.740;2023-04-16T07:29:20;100846.66;;;5.99;100.00
51452;BME280;37521;52.020;-1.740;2023-04-16T07:31:48;100859.75;;;6.00;100.00
51452;BME280;37521;52.020;-1.740;2023-04-16T07:34:17;100865.84;;;6.03;100.00
51452;BME280;37521;52.020;-1.740;2023-04-16T07:36:46;100866.69;;;6.05;100.00
51452;BME280;37521;52.020;-1.740;2023-04-16T07:39:14;100852.72;;;6.04;100.00
51452;BME280;37521;52.020;-1.740;2023-04-16T07:41:42;100852.75;;;6.03;100.00
51452;BME280;37521;52.020;-1.740;2023-04-16T07:44:11;100864.06;;;6.05;100.00
51452;BME280;37521;52.020;-1.740;2023-04-16T07:46:39;100870.16;;;6.07;100.00
51452;BME280;37521;52.020;-1.740;2023-04-16T07:49:13;100875.38;;;6.10;100.00
51452;BME280;37521;52.020;-1.740;2023-04-16T07:51:41;100883.13;;;6.14;100.00
51452;BME280;37521;52.020;-1.740;2023-04-16T07:54:11;100875.31;;;6.13;100.00
51452;BME280;37521;52.020;-1.740;2023-04-16T07:56:39;100877.09;;;6.11;100.00
51452;BME280;37521;52.020;-1.740;2023-04-16T07:59:07;100876.25;;;6.07;100.00
51452;BME280;37521;52.020;-1.740;2023-04-16T08:01:51;100892.84;;;6.08;100.00
51452;BME280;37521;52.020;-1.740;2023-04-16T08:04:19;100884.97;;;6.08;100.00
51452;BME280;37521;52.020;-1.740;2023-04-16T08:06:52;100890.19;;;6.11;100.00
51452;BME280;37521;52.020;-1.740;2023-04-16T08:09:25;100887.53;;;6.14;100.00
51452;BME280;37521;52.020;-1.740;2023-04-16T08:11:53;100892.75;;;6.17;100.00
51452;BME280;37521;52.020;-1.740;2023-04-16T08:14:21;100889.13;;;6.24;100.00
51452;BME280;37521;52.020;-1.740;2023-04-16T08:16:49;100888.28;;;6.23;100.00
51452;BME280;37521;52.020;-1.740;2023-04-16T08:19:18;100895.19;;;6.27;100.00
51452;BME280;37521;52.020;-1.740;2023-04-16T08:21:46;100886.41;;;6.32;100.00
51452;BME280;37521;52.020;-1.740;2023-04-16T08:24:14;100888.09;;;6.34;100.00
51452;BME280;37521;52.020;-1.740;2023-04-16T08:26:43;100891.50;;;6.41;100.00
51452;BME280;37521;52.020;-1.740;2023-04-16T08:29:12;100894.84;;;6.52;100.00
51452;BME280;37521;52.020;-1.740;2023-04-16T08:31:40;100899.03;;;6.64;100.00
51452;BME280;37521;52.020;-1.740;2023-04-16T08:34:09;100897.06;;;6.75;100.00
51452;BME280;37521;52.020;-1.740;2023-04-16T08:36:39;100901.25;;;6.87;100.00
51452;BME280;37521;52.020;-1.740;2023-04-16T08:39:07;100895.88;;;6.96;100.00
51452;BME280;37521;52.020;-1.740;2023-04-16T08:41:37;100900.22;;;6.95;100.00
51452;BME280;37521;52.020;-1.740;2023-04-16T08:44:13;100895.88;;;6.94;100.00
51452;BME280;37521;52.020;-1.740;2023-04-16T08:46:41;100893.25;;;6.94;100.00
51452;BME280;37521;52.020;-1.740;2023-04-16T08:49:14;100902.78;;;7.00;100.00
51452;BME280;37521;52.020;-1.740;2023-04-16T08:51:49;100893.03;;;7.06;100.00
51452;BME280;37521;52.020;-1.740;2023-04-16T08:54:29;100899.88;;;7.17;100.00
51452;BME280;37521;52.020;-1.740;2023-04-16T08:56:58;100896.25;;;7.24;100.00
51452;BME280;37521;52.020;-1.740;2023-04-16T08:59:28;100891.84;;;7.24;100.00
51452;BME280;37521;52.020;-1.740;2023-04-16T09:01:57;100902.41;;;7.23;100.00
51452;BME280;37521;52.020;-1.740;2023-04-16T09:04:26;100896.13;;;7.28;100.00
51452;BME280;37521;52.020;-1.740;2023-04-16T09:06:55;100904.84;;;7.32;100.00
51452;BME280;37521;52.020;-1.740;2023-04-16T09:09:25;100910.94;;;7.34;100.00
51452;BME280;37521;52.020;-1.740;2023-04-16T09:11:54;100902.03;;;7.41;100.00
51452;BME280;37521;52.020;-1.740;2023-04-16T09:14:23;100912.28;;;7.55;100.00
51452;BME280;37521;52.020;-1.740;2023-04-16T09:16:53;100906.03;;;7.60;100.00
51452;BME280;37521;52.020;-1.740;2023-04-16T09:19:22;100903.28;;;7.67;100.00
51452;BME280;37521;52.020;-1.740;2023-04-16T09:21:50;100900.50;;;7.76;100.00
51452;BME280;37521;52.020;-1.740;2023-04-16T09:24:19;100895.09;;;7.82;100.00
51452;BME280;37521;52.020;-1.740;2023-04-16T09:26:49;100899.31;;;7.90;100.00
51452;BME280;37521;52.020;-1.740;2023-04-16T09:29:37;100905.31;;;7.97;100.00
51452;BME280;37521;52.020;-1.740;2023-04-16T09:32:08;100894.66;;;8.03;100.00
51452;BME280;37521;52.020;-1.740;2023-04-16T09:34:53;100890.25;;;8.04;100.00
51452;BME280;37521;52.020;-1.740;2023-04-16T09:37:22;100897.06;;;8.12;100.00
51452;BME280;37521;52.020;-1.740;2023-04-16T09:39:55;100902.09;;;8.23;100.00
51452;BME280;37521;52.020;-1.740;2023-04-16T09:42:24;100897.44;;;8.36;100.00
51452;BME280;37521;52.020;-1.740;2023-04-16T09:44:54;100894.56;;;8.46;100.00
51452;BME280;37521;52.020;-1.740;2023-04-16T09:47:39;100898.59;;;8.61;100.00
51452;BME280;37521;52.020;-1.740;2023-04-16T09:50:09;100900.25;;;8.65;100.00
51452;BME280;37521;52.020;-1.740;2023-04-16T09:52:39;100892.38;;;8.65;100.00
51452;BME280;37521;52.020;-1.740;2023-04-16T09:55:10;100898.38;;;8.70;100.00
51452;BME280;37521;52.020;-1.740;2023-04-16T09:57:38;100901.78;;;8.74;100.00
51452;BME280;37521;52.020;-1.740;2023-04-16T10:00:08;100897.25;;;8.81;100.00
51452;BME280;37521;52.020;-1.740;2023-04-16T10:02:40;100901.19;;;8.98;100.00
51452;BME280;37521;52.020;-1.740;2023-04-16T10:05:09;100902.50;;;9.16;100.00
51452;BME280;37521;52.020;-1.740;2023-04-16T10:07:42;100908.22;;;9.32;100.00
51452;BME280;37521;52.020;-1.740;2023-04-16T10:10:10;100900.19;;;9.37;100.00
51452;BME280;37521;52.020;-1.740;2023-04-16T10:12:39;100912.13;;;9.50;100.00
51452;BME280;37521;52.020;-1.740;2023-04-16T10:15:08;100910.16;;;9.58;100.00
51452;BME280;37521;52.020;-1.740;2023-04-16T10:17:36;100900.88;;;9.74;100.00
51452;BME280;37521;52.020;-1.740;2023-04-16T10:20:07;100893.34;;;9.92;100.00
51452;BME280;37521;52.020;-1.740;2023-04-16T10:22:36;100897.53;;;9.99;100.00
51452;BME280;37521;52.020;-1.740;2023-04-16T10:25:06;100906.19;;;10.04;100.00
51452;BME280;37521;52.020;-1.740;2023-04-16T10:27:35;100904.38;;;10.06;100.00
51452;BME280;37521;52.020;-1.740;2023-04-16T10:30:05;100900.47;;;9.90;100.00
51452;BME280;37521;52.020;-1.740;2023-04-16T10:32:35;100904.94;;;9.86;100.00
51452;BME280;37521;52.020;-1.740;2023-04-16T10:35:04;100906.25;;;9.71;100.00
51452;BME280;37521;52.020;-1.740;2023-04-16T10:37:36;100907.47;;;9.60;100.00
51452;BME280;37521;52.020;-1.740;2023-04-16T10:40:22;100912.78;;;9.58;100.00
51452;BME280;37521;52.020;-1.740;2023-04-16T10:42:54;100909.97;;;9.64;100.00
51452;BME280;37521;52.020;-1.740;2023-04-16T10:45:28;100909.63;;;9.76;100.00
51452;BME280;37521;52.020;-1.740;2023-04-16T10:47:57;100911.03;;;9.90;100.00
51452;BME280;37521;52.020;-1.740;2023-04-16T10:50:33;100904.53;;;10.00;100.00
51452;BME280;37521;52.020;-1.740;2023-04-16T10:53:23;100912.47;;;10.00;100.00
51452;BME280;37521;52.020;-1.740;2023-04-16T10:56:09;100906.31;;;9.99;100.00
51452;BME280;37521;52.020;-1.740;2023-04-16T10:58:38;100916.63;;;10.07;100.00
51452;BME280;37521;52.020;-1.740;2023-04-16T11:01:10;100916.75;;;10.04;100.00
51452;BME280;37521;52.020;-1.740;2023-04-16T11:03:41;100918.31;;;10.09;100.00
51452;BME280;37521;52.020;-1.740;2023-04-16T11:06:11;100913.00;;;10.11;100.00
51452;BME280;37521;52.020;-1.740;2023-04-16T11:08:43;100917.25;;;10.17;100.00
51452;BME280;37521;52.020;-1.740;2023-04-16T11:11:21;100916.34;;;10.18;100.00
51452;BME280;37521;52.020;-1.740;2023-04-16T11:13:54;100915.31;;;10.23;100.00
51452;BME280;37521;52.020;-1.740;2023-04-16T11:16:23;100922.84;;;10.35;100.00
51452;BME280;37521;52.020;-1.740;2023-04-16T11:18:53;100922.72;;;10.40;100.00
51452;BME280;37521;52.020;-1.740;2023-04-16T11:21:23;100912.81;;;10.47;100.00
51452;BME280;37521;52.020;-1.740;2023-04-16T11:23:53;100912.72;;;10.50;100.00
51452;BME280;37521;52.020;-1.740;2023-04-16T11:26:23;100913.69;;;10.47;100.00
51452;BME280;37521;52.020;-1.740;2023-04-16T11:28:53;100911.16;;;10.44;100.00
51452;BME280;37521;52.020;-1.740;2023-04-16T11:31:22;100917.91;;;10.53;100.00
51452;BME280;37521;52.020;-1.740;2023-04-16T11:33:54;100909.84;;;10.57;100.00
51452;BME280;37521;52.020;-1.740;2023-04-16T11:36:23;100916.94;;;10.55;100.00
51452;BME280;37521;52.020;-1.740;2023-04-16T11:39:01;100917.91;;;10.53;100.00
51452;BME280;37521;52.020;-1.740;2023-04-16T11:41:30;100919.44;;;10.60;100.00
51452;BME280;37521;52.020;-1.740;2023-04-16T11:43:58;100912.97;;;10.70;100.00
51452;BME280;37521;52.020;-1.740;2023-04-16T11:46:37;100921.50;;;10.78;100.00
51452;BME280;37521;52.020;-1.740;2023-04-16T11:49:05;100918.75;;;10.81;100.00
51452;BME280;37521;52.020;-1.740;2023-04-16T11:51:38;100925.16;;;10.74;100.00
51452;BME280;37521;52.020;-1.740;2023-04-16T11:54:08;100920.44;;;10.56;100.00
51452;BME280;37521;52.020;-1.740;2023-04-16T11:56:38;100920.50;;;10.26;100.00
51452;BME280;37521;52.020;-1.740;2023-04-16T11:59:14;100907.63;;;10.14;100.00
51452;BME280;37521;52.020;-1.740;2023-04-16T12:01:46;100913.28;;;10.02;100.00
51452;BME280;37521;52.020;-1.740;2023-04-16T12:04:16;100913.03;;;10.09;100.00
51452;BME280;37521;52.020;-1.740;2023-04-16T12:07:04;100908.72;;;10.07;100.00
51452;BME280;37521;52.020;-1.740;2023-04-16T12:09:35;100906.63;;;10.18;100.00
51452;BME280;37521;52.020;-1.740;2023-04-16T12:12:24;100908.25;;;10.22;100.00
51452;BME280;37521;52.020;-1.740;2023-04-16T12:14:53;100920.75;;;10.17;100.00
51452;BME280;37521;52.020;-1.740;2023-04-16T12:17:22;100920.00;;;10.12;100.00
51452;BME280;37521;52.020;-1.740;2023-04-16T12:19:54;100923.00;;;10.00;100.00
51452;BME280;37521;52.020;-1.740;2023-04-16T12:22:27;100920.59;;;9.92;100.00
51452;BME280;37521;52.020;-1.740;2023-04-16T12:24:58;100924.22;;;9.90;100.00
51452;BME280;37521;52.020;-1.740;2023-04-16T12:27:43;100925.94;;;9.89;100.00
51452;BME280;37521;52.020;-1.740;2023-04-16T12:30:13;100928.63;;;9.88;100.00
51452;BME280;37521;52.020;-1.740;2023-04-16T12:32:43;100929.47;;;9.90;100.00
51452;BME280;37521;52.020;-1.740;2023-04-16T12:35:12;100932.06;;;9.91;100.00
51452;BME280;37521;52.020;-1.740;2023-04-16T12:37:40;100929.19;;;9.99;100.00
51452;BME280;37521;52.020;-1.740;2023-04-16T12:40:10;100929.06;;;10.03;100.00
51452;BME280;37521;52.020;-1.740;2023-04-16T12:42:38;100929.75;;;10.10;100.00
51452;BME280;37521;52.020;-1.740;2023-04-16T12:45:06;100929.56;;;10.16;100.00
51452;BME280;37521;52.020;-1.740;2023-04-16T12:47:35;100927.81;;;10.17;100.00
51452;BME280;37521;52.020;-1.740;2023-04-16T12:50:03;100932.94;;;10.21;100.00